Time;durP1;ratioP1;P1;durP2;ratioP2;P2;SDS_P1;SDS_P2;PMS_P1;PMS_P2;Temp;Humidity;BMP_temperature;BMP_pressure;BME280_temperature;BME280_humidity;BME280_pressure;Samples;Min_cycle;Max_cycle;Signal;HPM_P1;HPM_P2
2022/05/23 00:01:27;;;;;;;10.07;5.63;;;15.00;99.90;;;;;;5072710;28;20574;-61
2022/05/23 00:03:54;;;;;;;13.60;5.77;;;15.10;99.90;;;;;;5071666;28;20205;-60
2022/05/23 00:06:21;;;;;;;8.37;5.47;;;15.10;99.90;;;;;;5072162;28;20254;-61
2022/05/23 00:08:50;;;;;;;9.00;5.37;;;15.20;1.00;;;;;;5072156;28;20208;-60
2022/05/23 00:11:17;;;;;;;11.60;5.47;;;15.20;1.00;;;;;;5071823;28;20221;-60
2022/05/23 00:13:44;;;;;;;8.30;5.53;;;15.20;1.00;;;;;;5071411;28;20569;-60
2022/05/23 00:16:18;;;;;;;10.03;5.70;;;15.20;1.00;;;;;;5071464;28;20221;-61
2022/05/23 00:18:47;;;;;;;11.20;6.00;;;15.20;1.00;;;;;;5072225;28;20234;-61
2022/05/23 00:21:13;;;;;;;10.80;5.80;;;15.20;1.00;;;;;;5071940;28;20816;-62
2022/05/23 00:23:40;;;;;;;8.40;5.27;;;15.20;1.00;;;;;;5071236;28;20706;-61
2022/05/23 00:26:07;;;;;;;8.10;5.37;;;15.20;1.00;;;;;;5071283;28;20334;-61
2022/05/23 00:28:34;;;;;;;9.33;6.10;;;15.10;1.00;;;;;;5071788;28;20282;-61
2022/05/23 00:31:00;;;;;;;7.83;5.70;;;15.00;1.00;;;;;;5071880;28;20278;-61
2022/05/23 00:36:13;;;;;;;8.13;5.70;;;14.80;37.70;;;;;;5071404;28;20207;-62
2022/05/23 00:38:39;;;;;;;10.17;5.70;;;14.90;1.00;;;;;;5071444;28;20266;-60
2022/05/23 00:44:00;;;;;;;8.27;5.23;;;15.00;1.00;;;;;;5071090;28;20671;-61
2022/05/23 00:46:26;;;;;;;7.10;5.40;;;15.00;99.90;;;;;;5071200;28;20224;-61
2022/05/23 00:48:53;;;;;;;8.67;6.13;;;15.00;99.90;;;;;;5071420;28;20208;-61
2022/05/23 00:51:21;;;;;;;11.20;6.07;;;14.90;39.00;;;;;;5072115;28;20232;-61
2022/05/23 00:53:52;;;;;;;11.17;6.10;;;14.90;82.30;;;;;;5072689;28;20224;-61
2022/05/23 00:56:23;;;;;;;8.97;6.07;;;15.00;1.00;;;;;;5072668;28;20189;-61
2022/05/23 00:58:55;;;;;;;10.27;6.47;;;14.90;99.90;;;;;;5072626;28;20255;-61
2022/05/23 01:01:25;;;;;;;8.40;5.60;;;14.80;99.90;;;;;;5070752;28;20246;-61
2022/05/23 01:03:52;;;;;;;8.87;5.90;;;14.80;99.90;;;;;;5070873;28;20217;-59
2022/05/23 01:06:21;;;;;;;12.30;6.20;;;14.90;99.90;;;;;;5071227;28;20624;-61
2022/05/23 01:08:50;;;;;;;8.97;5.60;;;15.00;99.90;;;;;;5071344;28;20267;-61
2022/05/23 01:11:17;;;;;;;9.00;5.67;;;15.00;99.90;;;;;;5071479;28;20232;-59
2022/05/23 01:13:43;;;;;;;8.40;5.60;;;15.00;99.90;;;;;;5070787;28;20640;-61
2022/05/23 01:16:11;;;;;;;10.00;5.67;;;15.00;99.90;;;;;;5070627;28;20640;-61
2022/05/23 01:18:38;;;;;;;7.53;5.80;;;15.00;99.90;;;;;;5071343;28;20208;-61
2022/05/23 01:21:06;;;;;;;9.40;5.70;;;15.00;99.90;;;;;;5071157;28;20583;-60
2022/05/23 01:23:43;;;;;;;7.43;5.63;;;15.00;99.90;;;;;;5070734;28;20808;-62
2022/05/23 01:26:11;;;;;;;7.90;4.90;;;15.10;99.90;;;;;;5070759;28;20216;-62
2022/05/23 01:28:39;;;;;;;7.67;5.13;;;15.10;99.90;;;;;;5070974;28;20208;-62
2022/05/23 01:31:06;;;;;;;6.83;5.27;;;15.10;99.90;;;;;;5071109;28;20741;-61
2022/05/23 01:33:33;;;;;;;7.77;5.47;;;15.10;99.90;;;;;;5070360;28;20777;-62
2022/05/23 01:36:00;;;;;;;6.87;4.80;;;15.10;99.90;;;;;;5070672;28;20204;-62
2022/05/23 01:38:27;;;;;;;6.93;5.30;;;15.10;99.90;;;;;;5071014;28;20212;-61
2022/05/23 01:40:56;;;;;;;7.30;5.10;;;15.10;99.90;;;;;;5070999;28;20205;-62
2022/05/23 01:43:25;;;;;;;5.90;4.90;;;15.20;99.90;;;;;;5070136;28;20278;-62
2022/05/23 01:45:52;;;;;;;5.33;4.50;;;15.20;99.90;;;;;;5070733;28;20209;-62
2022/05/23 01:48:18;;;;;;;7.43;5.17;;;15.20;99.90;;;;;;5071110;28;20235;-61
2022/05/23 01:50:45;;;;;;;5.90;4.13;;;15.20;99.90;;;;;;5070514;28;20678;-61
2022/05/23 01:53:12;;;;;;;8.03;4.60;;;15.20;32.10;;;;;;5070397;28;20221;-62
2022/05/23 01:55:39;;;;;;;9.50;4.47;;;15.20;1.00;;;;;;5070439;28;20204;-62
2022/05/23 01:58:06;;;;;;;5.67;4.20;;;15.20;1.00;;;;;;5070589;28;20664;-62
2022/05/23 02:03:18;;;;;;;7.77;4.30;;;15.30;1.00;;;;;;5070438;28;20354;-62
2022/05/23 02:05:45;;;;;;;4.90;4.40;;;15.30;99.90;;;;;;5070521;28;20209;-62
2022/05/23 02:08:12;;;;;;;4.53;3.70;;;15.30;12.50;;;;;;5070344;28;20733;-59
2022/05/23 02:10:39;;;;;;;9.30;4.23;;;15.30;1.00;;;;;;5070828;28;20749;-61
2022/05/23 02:13:05;;;;;;;4.50;4.10;;;15.30;99.90;;;;;;5070905;28;20247;-60
2022/05/23 02:15:34;;;;;;;7.20;4.20;;;15.40;1.00;;;;;;5073914;28;20831;-60
2022/05/23 02:18:01;;;;;;;4.73;3.60;;;15.50;99.90;;;;;;5073982;28;20254;-62
2022/05/23 02:20:29;;;;;;;4.57;3.70;;;15.50;1.00;;;;;;5074235;28;20205;-62
2022/05/23 02:22:56;;;;;;;6.30;3.13;;;15.60;99.90;;;;;;5073856;28;20232;-61
2022/05/23 02:25:24;;;;;;;7.20;3.80;;;15.60;99.90;;;;;;5073527;28;20243;-61
2022/05/23 02:27:51;;;;;;;3.70;3.30;;;15.70;1.00;;;;;;5073867;28;20205;-62
2022/05/23 02:30:18;;;;;;;4.90;3.00;;;15.70;1.00;;;;;;5074202;28;20205;-62
2022/05/23 02:32:46;;;;;;;5.87;3.37;;;15.80;1.00;;;;;;5073625;28;20297;-59
2022/05/23 02:35:13;;;;;;;6.83;3.70;;;15.90;1.00;;;;;;5073154;28;20297;-60
2022/05/23 02:37:40;;;;;;;5.07;3.67;;;15.90;1.00;;;;;;5073687;28;20215;-62
2022/05/23 02:40:08;;;;;;;6.07;3.27;;;16.00;1.00;;;;;;5073707;28;20212;-62
2022/05/23 02:42:35;;;;;;;4.47;3.10;;;16.10;1.00;;;;;;5073533;28;20225;-61
2022/05/23 02:45:02;;;;;;;5.30;3.03;;;16.10;99.90;;;;;;5073429;28;20212;-62
2022/05/23 02:47:29;;;;;;;5.83;3.23;;;16.20;99.90;;;;;;5073493;28;20205;-60
2022/05/23 02:49:57;;;;;;;3.77;2.97;;;16.20;99.90;;;;;;5073219;28;20239;-58
2022/05/23 02:52:24;;;;;;;5.23;2.87;;;16.30;99.90;;;;;;5073725;28;20229;-62
2022/05/23 02:54:51;;;;;;;4.03;2.70;;;16.30;99.90;;;;;;5073117;28;20208;-62
2022/05/23 02:57:17;;;;;;;3.50;2.90;;;16.30;99.90;;;;;;5073243;28;20204;-62
2022/05/23 02:59:44;;;;;;;3.70;2.90;;;16.40;99.90;;;;;;5073485;28;20239;-62
2022/05/23 03:04:56;;;;;;;4.73;3.03;;;16.40;99.90;;;;;;5073274;28;20212;-62
2022/05/23 03:07:23;;;;;;;3.57;3.00;;;16.40;99.90;;;;;;5073195;28;20247;-61
2022/05/23 03:09:50;;;;;;;6.17;3.07;;;16.40;99.90;;;;;;5073523;28;20224;-61
2022/05/23 03:12:16;;;;;;;3.77;2.93;;;16.40;99.90;;;;;;5072726;28;20252;-62
2022/05/23 03:14:43;;;;;;;3.70;2.63;;;16.40;99.90;;;;;;5072468;28;20211;-61
2022/05/23 03:17:10;;;;;;;6.07;3.00;;;16.40;99.90;;;;;;5072728;28;20224;-61
2022/05/23 03:19:37;;;;;;;5.03;2.47;;;16.40;99.90;;;;;;5073195;28;20262;-62
2022/05/23 03:27:35;;;;;;;6.27;2.63;;;16.40;99.90;;;;;;5072730;28;20745;-62
2022/05/23 03:30:02;;;;;;;5.30;2.63;;;16.40;99.90;;;;;;5072727;28;20250;-62
2022/05/23 03:32:29;;;;;;;4.60;2.87;;;16.40;99.90;;;;;;5072516;28;20267;-62
2022/05/23 03:34:56;;;;;;;3.90;2.73;;;16.40;99.90;;;;;;5072218;28;20212;-61
2022/05/23 03:37:25;;;;;;;3.93;2.80;;;16.40;99.90;;;;;;5072518;28;20207;-62
2022/05/23 03:39:52;;;;;;;4.97;2.57;;;16.40;99.90;;;;;;5072538;28;20270;-62
2022/05/23 03:42:18;;;;;;;3.50;2.47;;;16.50;99.90;;;;;;5072386;28;20279;-61
2022/05/23 03:44:45;;;;;;;4.23;2.77;;;16.50;99.90;;;;;;5072078;28;20262;-62
2022/05/23 03:47:12;;;;;;;4.00;2.30;;;16.50;99.90;;;;;;5072114;28;20630;-60
2022/05/23 03:49:39;;;;;;;5.23;2.73;;;16.50;99.90;;;;;;5072429;28;20683;-60
2022/05/23 03:52:06;;;;;;;3.63;2.70;;;16.50;99.90;;;;;;5072150;28;20232;-62
2022/05/23 03:54:34;;;;;;;3.50;2.53;;;16.60;99.90;;;;;;5071416;28;21065;-62
2022/05/23 03:57:01;;;;;;;8.00;4.33;;;16.60;99.90;;;;;;5072285;28;20208;-61
2022/05/23 03:59:28;;;;;;;5.73;2.80;;;16.60;99.90;;;;;;5072352;28;20265;-61
2022/05/23 04:01:57;;;;;;;6.23;2.57;;;16.50;99.90;;;;;;5072128;28;20221;-62
2022/05/23 04:04:24;;;;;;;3.83;2.50;;;16.60;99.90;;;;;;5071611;28;20302;-62
2022/05/23 04:06:51;;;;;;;5.70;2.90;;;16.60;99.90;;;;;;5071668;28;20213;-62
2022/05/23 04:09:18;;;;;;;4.83;2.40;;;16.60;99.90;;;;;;5072312;28;20205;-62
2022/05/23 04:11:47;;;;;;;4.00;2.17;;;16.70;99.90;;;;;;5071784;28;20219;-62
2022/05/23 04:14:14;;;;;;;5.87;3.77;;;16.70;99.90;;;;;;5071213;28;20574;-60
2022/05/23 04:16:44;;;;;;;3.67;2.10;;;16.70;99.90;;;;;;5071402;28;20349;-60
2022/05/23 04:19:11;;;;;;;4.10;2.40;;;16.70;99.90;;;;;;5072002;28;20209;-60
2022/05/23 04:21:40;;;;;;;3.40;2.60;;;16.70;99.90;;;;;;5071501;28;20205;-61
2022/05/23 04:24:07;;;;;;;4.50;2.37;;;16.80;99.90;;;;;;5068988;28;20217;-63
2022/05/23 04:26:33;;;;;;;2.77;2.03;;;16.80;99.90;;;;;;5071500;28;20715;-63
2022/05/23 04:29:02;;;;;;;2.33;2.00;;;16.80;99.90;;;;;;5071418;28;20282;-63
2022/05/23 04:31:29;;;;;;;4.13;2.23;;;16.90;99.90;;;;;;5071952;28;20718;-62
2022/05/23 04:36:40;;;;;;;5.37;2.37;;;16.90;99.90;;;;;;5071562;28;20204;-62
2022/05/23 04:39:08;;;;;;;3.57;2.10;;;17.00;99.90;;;;;;5071886;28;20201;-62
2022/05/23 04:41:35;;;;;;;3.00;2.17;;;17.10;99.90;;;;;;5071872;28;20243;-63
2022/05/23 04:44:03;;;;;;;2.37;1.90;;;17.10;99.90;;;;;;5072061;28;20223;-63
2022/05/23 04:46:30;;;;;;;2.93;2.03;;;17.10;99.90;;;;;;5071057;28;20691;-64
2022/05/23 04:51:41;;;;;;;3.63;2.17;;;17.20;99.90;;;;;;5071562;28;20207;-63
2022/05/23 04:54:08;;;;;;;4.43;2.40;;;17.30;99.90;;;;;;5071952;28;20205;-62
2022/05/23 04:56:37;;;;;;;3.90;2.90;;;17.30;99.90;;;;;;5071746;28;20208;-63
2022/05/23 04:59:05;;;;;;;7.60;2.60;;;17.30;99.90;;;;;;5071374;28;20229;-63
2022/05/23 05:01:32;;;;;;;3.67;2.70;;;17.20;99.90;;;;;;5072014;28;20254;-60
2022/05/23 05:03:59;;;;;;;6.03;2.70;;;17.20;99.90;;;;;;5071621;28;20197;-63
2022/05/23 05:06:26;;;;;;;8.27;4.87;;;17.20;99.90;;;;;;5071603;28;20212;-63
2022/05/23 05:08:53;;;;;;;8.53;3.17;;;17.30;99.90;;;;;;5071472;28;20274;-64
2022/05/23 05:11:20;;;;;;;5.53;2.90;;;17.30;99.90;;;;;;5071373;28;20217;-62
2022/05/23 05:13:46;;;;;;;3.90;3.40;;;17.50;99.90;;;;;;5071686;28;21294;-63
2022/05/23 05:16:19;;;;;;;4.97;2.87;;;17.50;99.90;;;;;;5070893;28;20736;-61
2022/05/23 05:18:45;;;;;;;4.63;2.90;;;17.60;99.90;;;;;;5071696;28;20215;-63
2022/05/23 05:21:12;;;;;;;4.80;2.80;;;17.70;99.90;;;;;;5071367;28;20201;-63
2022/05/23 05:23:39;;;;;;;4.17;2.77;;;17.70;99.90;;;;;;5071554;28;20220;-64
2022/05/23 05:26:06;;;;;;;4.23;3.10;;;17.70;99.90;;;;;;5070953;28;20204;-64
2022/05/23 05:28:33;;;;;;;6.90;3.33;;;17.70;99.90;;;;;;5073317;28;20211;-64
2022/05/23 05:31:06;;;;;;;6.63;3.73;;;17.70;99.90;;;;;;5073666;28;20295;-64
2022/05/23 05:33:37;;;;;;;7.87;3.70;;;17.70;99.90;;;;;;5073191;28;20229;-64
2022/05/23 05:36:07;;;;;;;5.77;3.60;;;17.70;99.90;;;;;;5071288;28;20560;-64
2022/05/23 05:38:37;;;;;;;6.00;3.93;;;17.70;99.90;;;;;;5070842;28;20205;-65
2022/05/23 05:41:09;;;;;;;7.47;3.80;;;17.60;99.90;;;;;;5071372;28;20213;-64
2022/05/23 05:43:41;;;;;;;8.90;4.07;;;17.60;99.90;;;;;;5071325;28;20229;-64
2022/05/23 05:46:15;;;;;;;6.97;3.90;;;17.60;99.90;;;;;;5057285;28;20634;-65
2022/05/23 05:48:46;;;;;;;6.53;3.67;;;17.70;99.90;;;;;;5072300;28;20566;-64
2022/05/23 05:51:16;;;;;;;5.80;3.83;;;17.70;99.90;;;;;;5074381;28;20606;-64
2022/05/23 05:53:44;;;;;;;8.23;3.47;;;17.70;99.90;;;;;;5074663;28;20229;-64
2022/05/23 05:56:11;;;;;;;5.50;3.80;;;17.70;99.90;;;;;;5073855;28;20235;-64
2022/05/23 05:58:39;;;;;;;7.13;4.20;;;17.90;1.00;;;;;;5074492;28;20201;-64
2022/05/23 06:01:05;;;;;;;5.50;3.20;;;18.00;1.00;;;;;;5074538;28;20239;-63
2022/05/23 06:03:34;;;;;;;6.47;3.73;;;18.20;1.00;;;;;;5073762;28;20267;-63
2022/05/23 06:11:32;;;;;;;4.87;3.10;;;18.70;1.00;;;;;;5074051;28;20208;-62
2022/05/23 06:14:00;;;;;;;8.80;3.00;;;18.80;1.00;;;;;;5074517;28;20221;-64
2022/05/23 06:16:30;;;;;;;3.63;2.67;;;18.80;99.90;;;;;;5073575;28;20212;-64
2022/05/23 06:18:57;;;;;;;3.87;2.30;;;19.00;99.90;;;;;;5074086;28;20707;-62
2022/05/23 06:21:26;;;;;;;5.00;2.60;;;19.00;99.90;;;;;;5073189;28;20204;-63
2022/05/23 06:23:53;;;;;;;6.30;3.03;;;19.10;99.90;;;;;;5073337;28;20205;-62
2022/05/23 06:26:22;;;;;;;4.77;2.73;;;19.10;99.90;;;;;;5073209;28;20208;-64
2022/05/23 06:28:49;;;;;;;5.07;2.80;;;19.10;99.90;;;;;;5074063;28;20297;-62
2022/05/23 06:31:17;;;;;;;3.70;2.60;;;19.20;99.90;;;;;;5074294;28;20620;-62
2022/05/23 06:33:44;;;;;;;3.00;2.43;;;19.10;99.90;;;;;;5073369;28;20703;-63
2022/05/23 06:36:12;;;;;;;9.10;2.70;;;19.20;99.90;;;;;;5073531;28;20209;-62
2022/05/23 06:38:42;;;;;;;4.43;3.10;;;19.30;99.90;;;;;;5073539;28;20201;-63
2022/05/23 06:41:11;;;;;;;5.97;2.93;;;19.30;99.90;;;;;;5073856;28;20230;-62
2022/05/23 06:43:40;;;;;;;4.77;2.43;;;19.40;99.90;;;;;;5073886;28;20224;-63
2022/05/23 06:46:07;;;;;;;3.83;2.37;;;19.50;99.90;;;;;;5072920;28;20211;-63
2022/05/23 06:48:34;;;;;;;3.73;2.50;;;19.50;99.90;;;;;;5073605;28;20205;-62
2022/05/23 06:51:01;;;;;;;3.77;2.23;;;19.60;99.90;;;;;;5073322;28;20295;-63
2022/05/23 06:53:29;;;;;;;3.00;2.10;;;19.70;99.90;;;;;;5073331;28;20229;-64
2022/05/23 06:55:58;;;;;;;3.27;2.20;;;19.70;99.90;;;;;;5073715;28;20212;-66
2022/05/23 06:58:24;;;;;;;5.50;2.33;;;19.80;99.90;;;;;;5073102;28;20664;-64
2022/05/23 07:00:52;;;;;;;4.33;2.50;;;19.80;99.90;;;;;;5073073;28;20212;-64
2022/05/23 07:03:19;;;;;;;3.80;2.13;;;19.90;99.90;;;;;;5072700;28;20259;-65
2022/05/23 07:14:01;;;;;;;3.13;2.17;;;20.20;99.90;;;;;;5072592;28;20314;-61
2022/05/23 07:16:28;;;;;;;4.87;2.37;;;20.30;99.90;;;;;;5072156;28;20569;-63
2022/05/23 07:18:56;;;;;;;3.30;2.40;;;20.30;99.90;;;;;;5073123;28;20220;-63
2022/05/23 07:21:24;;;;;;;3.47;2.13;;;20.30;99.90;;;;;;5072672;28;20209;-63
2022/05/23 07:23:51;;;;;;;5.10;2.60;;;20.40;99.90;;;;;;5072134;28;20719;-63
2022/05/23 07:26:19;;;;;;;2.90;2.30;;;20.30;99.90;;;;;;5072210;28;20213;-63
2022/05/23 07:28:47;;;;;;;4.97;2.37;;;20.40;99.90;;;;;;5072576;28;20228;-64
2022/05/23 07:31:14;;;;;;;4.10;2.00;;;20.40;99.90;;;;;;5072455;28;20209;-61
2022/05/23 07:33:41;;;;;;;3.00;2.13;;;20.50;99.90;;;;;;5072753;28;20232;-63
2022/05/23 07:36:10;;;;;;;3.90;2.27;;;20.50;99.90;;;;;;5072326;28;20208;-62
2022/05/23 07:38:38;;;;;;;4.00;2.37;;;20.70;99.90;;;;;;5072029;28;20270;-63
2022/05/23 07:41:06;;;;;;;3.27;2.17;;;20.80;99.90;;;;;;5072472;28;20299;-64
2022/05/23 07:43:35;;;;;;;3.10;1.97;;;21.00;99.90;;;;;;5071513;28;20216;-62
2022/05/23 07:46:09;;;;;;;3.10;2.30;;;21.00;99.90;;;;;;5072282;28;20287;-63
2022/05/23 07:48:36;;;;;;;4.63;2.40;;;21.10;99.90;;;;;;5072189;28;20205;-62
2022/05/23 07:51:03;;;;;;;2.27;1.87;;;21.10;99.90;;;;;;5072339;28;20578;-63
2022/05/23 08:01:45;;;;;;;3.30;2.27;;;21.30;99.90;;;;;;5071878;28;20678;-62
2022/05/23 08:04:12;;;;;;;3.33;2.17;;;21.30;99.90;;;;;;5071570;28;20247;-67
2022/05/23 08:06:38;;;;;;;4.33;2.30;;;21.30;99.90;;;;;;5070862;28;20259;-65
2022/05/23 08:09:07;;;;;;;4.13;2.27;;;21.30;99.90;;;;;;5072083;28;20259;-64
2022/05/23 08:11:33;;;;;;;4.57;2.20;;;21.40;99.90;;;;;;5071622;28;20208;-63
2022/05/23 08:14:01;;;;;;;4.77;2.40;;;21.50;99.90;;;;;;5071434;28;20221;-63
2022/05/23 08:16:30;;;;;;;6.90;2.33;;;21.80;99.90;;;;;;5071818;28;20266;-64
2022/05/23 08:18:58;;;;;;;2.77;2.03;;;22.00;99.90;;;;;;5071595;28;20209;-63
2022/05/23 08:21:25;;;;;;;6.10;2.83;;;22.20;99.90;;;;;;5072040;28;20209;-64
2022/05/23 08:23:52;;;;;;;3.50;2.20;;;22.30;99.90;;;;;;5072039;28;20224;-63
2022/05/23 08:26:18;;;;;;;5.20;2.43;;;22.30;99.90;;;;;;5070918;28;20276;-64
2022/05/23 08:28:45;;;;;;;3.37;2.07;;;22.20;99.90;;;;;;5071745;28;20216;-62
2022/05/23 08:31:14;;;;;;;3.83;2.00;;;22.40;99.90;;;;;;5071162;28;20842;-63
2022/05/23 08:33:40;;;;;;;4.37;2.37;;;22.50;99.90;;;;;;5070772;28;20633;-66
2022/05/23 08:36:07;;;;;;;4.93;2.40;;;22.50;99.90;;;;;;5071452;28;20220;-63
2022/05/23 08:38:34;;;;;;;4.17;2.10;;;22.50;99.90;;;;;;5071426;28;20278;-63
2022/05/23 08:41:10;;;;;;;3.40;2.00;;;22.40;99.90;;;;;;5071609;28;20262;-63
2022/05/23 08:43:44;;;;;;;2.20;1.70;;;22.50;99.90;;;;;;5071281;28;20224;-63
2022/05/23 08:46:18;;;;;;;2.73;2.07;;;22.50;99.90;;;;;;5070912;28;20211;-63
2022/05/23 08:48:57;;;;;;;2.60;2.20;;;22.20;99.90;;;;;;5071475;28;20279;-62
2022/05/23 08:51:33;;;;;;;3.23;2.20;;;22.10;99.90;;;;;;5071635;28;20212;-62
2022/05/23 08:54:08;;;;;;;6.40;2.40;;;21.90;99.90;;;;;;5071643;28;20235;-62
2022/05/23 08:56:39;;;;;;;4.90;2.57;;;21.80;99.90;;;;;;5070398;28;20236;-63
2022/05/23 08:59:16;;;;;;;5.10;2.00;;;21.80;99.90;;;;;;5071667;28;20252;-64
2022/05/23 09:01:49;;;;;;;4.80;2.43;;;22.10;99.90;;;;;;5070719;28;20242;-62
2022/05/23 09:04:25;;;;;;;3.10;2.40;;;22.40;99.90;;;;;;5070996;28;20209;-64
2022/05/23 09:06:52;;;;;;;3.13;2.20;;;22.60;99.90;;;;;;5070028;28;20670;-63
2022/05/23 09:09:21;;;;;;;2.93;2.33;;;22.70;99.90;;;;;;5071294;28;20579;-64
2022/05/23 09:11:52;;;;;;;3.03;2.20;;;22.80;99.90;;;;;;5071360;28;20204;-62
2022/05/23 09:14:20;;;;;;;3.10;2.33;;;22.90;99.90;;;;;;5070838;28;20236;-59
2022/05/23 09:16:50;;;;;;;4.03;2.43;;;23.20;99.90;;;;;;5070506;28;20270;-63
2022/05/23 09:19:21;;;;;;;3.50;2.13;;;23.10;99.90;;;;;;5071136;28;20251;-63
2022/05/23 09:24:39;;;;;;;3.83;2.27;;;22.90;99.90;;;;;;5074381;28;20582;-62
2022/05/23 09:27:13;;;;;;;4.03;2.13;;;22.60;99.90;;;;;;5074266;28;20274;-65
2022/05/23 09:29:40;;;;;;;3.57;2.10;;;22.70;99.90;;;;;;5075245;28;20203;-59
2022/05/23 09:32:10;;;;;;;4.03;2.50;;;22.80;99.90;;;;;;5074848;28;20224;-61
2022/05/23 09:34:45;;;;;;;6.03;2.37;;;23.10;99.90;;;;;;5075147;28;20342;-62
2022/05/23 09:37:20;;;;;;;3.30;1.90;;;23.00;99.90;;;;;;5074223;28;20208;-64
2022/05/23 09:39:52;;;;;;;2.90;1.77;;;23.20;99.90;;;;;;5074759;28;20605;-63
2022/05/23 09:48:14;;;;;;;4.27;1.93;;;23.60;99.90;;;;;;5073688;28;20292;-62
2022/05/23 09:50:43;;;;;;;3.97;2.30;;;23.90;99.90;;;;;;5074391;28;20204;-62
2022/05/23 09:53:26;;;;;;;4.20;2.30;;;24.20;99.90;;;;;;5074578;28;20270;-62
2022/05/23 09:55:53;;;;;;;3.40;2.10;;;24.50;99.90;;;;;;5074013;28;20254;-64
2022/05/23 09:58:27;;;;;;;3.07;2.47;;;24.60;99.90;;;;;;5074014;28;20246;-64
2022/05/23 10:01:01;;;;;;;5.50;2.20;;;24.80;99.90;;;;;;5073918;28;20236;-65
2022/05/23 10:03:30;;;;;;;4.23;2.50;;;24.80;99.90;;;;;;5074486;28;20278;-65
2022/05/23 10:06:09;;;;;;;4.73;2.20;;;24.70;99.90;;;;;;5073805;28;20201;-66
2022/05/23 10:08:39;;;;;;;2.90;2.53;;;24.80;99.90;;;;;;5073934;28;20205;-67
2022/05/23 10:11:19;;;;;;;6.33;2.10;;;24.60;99.90;;;;;;5074360;28;20216;-67
2022/05/23 10:13:50;;;;;;;5.87;2.00;;;24.60;99.90;;;;;;5073971;28;20282;-68
2022/05/23 10:16:26;;;;;;;4.60;2.03;;;24.60;99.90;;;;;;5073519;28;20239;-66
2022/05/23 10:19:00;;;;;;;3.00;2.07;;;24.50;99.90;;;;;;5074337;28;20208;-65
2022/05/23 10:21:31;;;;;;;4.67;2.03;;;24.50;99.90;;;;;;5072857;28;20216;-65
2022/05/23 10:24:05;;;;;;;7.17;2.37;;;24.60;99.90;;;;;;5072566;28;20243;-67
2022/05/23 10:26:36;;;;;;;4.70;1.80;;;24.50;99.90;;;;;;5071674;28;20258;-65
2022/05/23 10:29:10;;;;;;;4.53;2.10;;;24.50;99.90;;;;;;5072994;28;20254;-67
2022/05/23 10:31:42;;;;;;;5.73;2.50;;;24.30;99.90;;;;;;5072851;28;20200;-67
2022/05/23 10:34:25;;;;;;;4.87;1.73;;;24.30;99.90;;;;;;5072443;28;20228;-67
2022/05/23 10:36:53;;;;;;;3.03;1.83;;;24.40;99.90;;;;;;5071534;28;20209;-64
2022/05/23 10:42:15;;;;;;;3.50;1.77;;;24.80;99.90;;;;;;5072326;28;20704;-63
2022/05/23 10:45:00;;;;;;;6.60;2.07;;;24.70;99.90;;;;;;5072115;28;20232;-64
2022/05/23 10:47:39;;;;;;;7.30;1.60;;;24.70;99.90;;;;;;5072046;28;20295;-63
2022/05/23 10:50:14;;;;;;;6.63;1.60;;;24.50;99.90;;;;;;5072841;28;20208;-63
2022/05/23 10:52:50;;;;;;;5.13;1.60;;;24.60;99.90;;;;;;5072554;28;20225;-64
2022/05/23 10:55:20;;;;;;;4.23;1.63;;;24.40;99.90;;;;;;5071924;28;20224;-64
2022/05/23 10:57:59;;;;;;;4.87;1.73;;;24.50;99.90;;;;;;5072354;28;20263;-64
2022/05/23 11:00:32;;;;;;;2.47;1.47;;;24.70;99.90;;;;;;5071588;28;20204;-64
2022/05/23 11:03:07;;;;;;;4.37;1.73;;;24.90;99.90;;;;;;5072027;28;20279;-64
2022/05/23 11:05:41;;;;;;;3.67;1.63;;;25.00;99.90;;;;;;5071981;28;20197;-64
2022/05/23 11:08:38;;;;;;;4.70;1.70;;;25.00;99.90;;;;;;5071354;28;20258;-63
2022/05/23 11:11:12;;;;;;;4.27;1.77;;;25.10;99.90;;;;;;5071954;28;20263;-64
2022/05/23 11:13:58;;;;;;;49.17;9.03;;;25.20;99.90;;;;;;5071327;28;20726;-64
2022/05/23 11:16:33;;;;;;;18.20;3.60;;;25.20;99.90;;;;;;5031427;28;1149578;-67
2022/05/23 11:19:26;;;;;;;79.27;15.03;;;24.80;99.90;;;;;;5072494;28;20273;-66
2022/05/23 11:22:03;;;;;;;12.17;2.53;;;24.90;99.90;;;;;;5058406;28;20582;-66
2022/05/23 11:24:39;;;;;;;2.93;1.63;;;24.80;99.90;;;;;;5072485;28;20236;-66
2022/05/23 11:35:52;;;;;;;17.90;2.83;;;25.20;99.90;;;;;;5072716;28;20593;-63
2022/05/23 11:38:21;;;;;;;7.50;1.67;;;25.40;99.90;;;;;;5072008;28;20228;-63
2022/05/23 11:41:05;;;;;;;2.50;1.63;;;25.30;99.90;;;;;;5072328;28;20254;-64
2022/05/23 11:43:32;;;;;;;2.57;1.67;;;25.30;99.90;;;;;;5072464;28;20236;-63
2022/05/23 11:46:02;;;;;;;4.73;1.60;;;25.20;99.90;;;;;;5071587;28;20266;-63
2022/05/23 11:48:54;;;;;;;3.63;2.10;;;25.20;99.90;;;;;;5071698;28;20295;-63
2022/05/23 11:51:41;;;;;;;3.93;2.33;;;25.00;99.90;;;;;;5072244;28;20205;-64
2022/05/23 11:54:28;;;;;;;2.10;1.80;;;24.90;99.90;;;;;;5072206;28;20707;-62
2022/05/23 11:57:15;;;;;;;4.03;2.10;;;25.00;99.90;;;;;;5071429;28;20322;-63
2022/05/23 12:00:06;;;;;;;5.33;2.03;;;25.20;99.90;;;;;;5072093;28;20250;-61
2022/05/23 12:02:38;;;;;;;2.83;1.80;;;25.20;99.90;;;;;;5072044;28;20229;-61
2022/05/23 12:05:30;;;;;;;4.13;1.80;;;25.30;99.90;;;;;;5072334;28;20283;-61
2022/05/23 12:08:04;;;;;;;6.93;2.27;;;25.40;99.90;;;;;;5070765;28;20295;-61
2022/05/23 12:10:56;;;;;;;4.13;2.13;;;25.60;99.90;;;;;;5072366;28;20212;-62
2022/05/23 12:13:49;;;;;;;3.00;2.23;;;25.60;99.90;;;;;;5071645;28;20275;-62
2022/05/23 12:16:46;;;;;;;3.23;1.83;;;25.30;99.90;;;;;;5071375;28;20303;-62
2022/05/23 12:19:26;;;;;;;3.17;2.10;;;25.30;99.90;;;;;;5071608;28;20200;-62
2022/05/23 12:21:52;;;;;;;2.80;1.90;;;25.30;99.90;;;;;;5071850;28;20609;-62
2022/05/23 12:24:28;;;;;;;1.90;1.60;;;25.00;99.90;;;;;;5071699;28;20609;-64
2022/05/23 12:26:59;;;;;;;3.93;2.23;;;25.10;99.90;;;;;;5070649;28;20208;-60
2022/05/23 12:29:29;;;;;;;6.80;2.20;;;25.30;99.90;;;;;;5072306;28;20213;-63
2022/05/23 12:32:18;;;;;;;4.83;2.10;;;25.50;99.90;;;;;;5071859;28;20321;-62
2022/05/23 12:34:47;;;;;;;4.50;2.60;;;25.60;99.90;;;;;;5071437;28;20220;-62
2022/05/23 12:37:21;;;;;;;4.10;2.43;;;25.80;99.90;;;;;;5070332;28;20205;-62
2022/05/23 12:40:03;;;;;;;4.33;1.70;;;25.80;99.90;;;;;;5071205;28;20627;-65
2022/05/23 12:42:42;;;;;;;3.17;1.93;;;25.70;99.90;;;;;;5071468;28;20319;-60
2022/05/23 12:45:51;;;;;;;3.00;1.97;;;25.50;99.90;;;;;;5072058;28;20249;-61
2022/05/23 12:48:38;;;;;;;4.70;2.13;;;25.30;99.90;;;;;;5071142;28;20556;-61
2022/05/23 12:51:18;;;;;;;5.23;2.30;;;25.20;99.90;;;;;;5071311;28;20209;-61
2022/05/23 12:54:03;;;;;;;3.53;2.20;;;25.30;99.90;;;;;;5071172;28;20311;-61
2022/05/23 12:56:48;;;;;;;6.53;2.20;;;25.00;99.90;;;;;;5071276;28;20258;-63
2022/05/23 12:59:40;;;;;;;3.53;2.10;;;24.70;99.90;;;;;;5071684;28;20209;-63
2022/05/23 13:02:13;;;;;;;7.47;2.07;;;24.70;99.90;;;;;;5058661;28;20225;-62
2022/05/23 13:04:48;;;;;;;2.90;2.10;;;24.80;99.90;;;;;;5071438;28;20189;-63
2022/05/23 13:07:21;;;;;;;3.30;2.23;;;24.70;99.90;;;;;;5070138;28;20693;-62
2022/05/23 13:09:52;;;;;;;5.53;2.30;;;24.70;99.90;;;;;;5071140;28;20204;-63
2022/05/23 13:12:22;;;;;;;3.87;1.93;;;24.60;99.90;;;;;;5071000;28;20660;-62
2022/05/23 13:14:53;;;;;;;4.20;2.20;;;24.40;99.90;;;;;;5070630;28;20220;-64
2022/05/23 13:17:35;;;;;;;5.03;2.23;;;24.30;99.90;;;;;;5070171;28;20508;-63
2022/05/23 13:22:46;;;;;;;3.23;2.30;;;24.10;99.90;;;;;;5071004;28;20251;-65
2022/05/23 13:25:13;;;;;;;4.10;2.37;;;24.10;99.90;;;;;;5070613;28;20228;-61
2022/05/23 13:27:46;;;;;;;5.00;2.40;;;23.90;99.90;;;;;;5070252;28;20253;-61
2022/05/23 13:30:24;;;;;;;4.20;2.50;;;23.60;99.90;;;;;;5070741;28;20262;-60
2022/05/23 13:33:03;;;;;;;4.40;2.90;;;23.50;99.90;;;;;;5070703;28;20711;-62
2022/05/23 13:35:31;;;;;;;6.77;2.50;;;23.40;99.90;;;;;;5069211;28;20224;-61
2022/05/23 13:38:13;;;;;;;10.97;2.90;;;23.40;99.90;;;;;;5069631;28;20241;-63
2022/05/23 13:40:43;;;;;;;3.47;2.50;;;23.40;99.90;;;;;;5070781;28;20254;-61
2022/05/23 13:43:11;;;;;;;5.37;2.87;;;23.40;99.90;;;;;;5070528;28;20271;-60
2022/05/23 13:45:42;;;;;;;6.40;2.90;;;23.40;99.90;;;;;;5071228;28;20205;-60
2022/05/23 13:48:16;;;;;;;3.60;2.60;;;23.30;99.90;;;;;;5069431;28;20196;-59
2022/05/23 13:50:47;;;;;;;4.37;2.80;;;23.20;99.90;;;;;;5071273;28;20192;-60
2022/05/23 13:53:21;;;;;;;4.37;3.17;;;23.20;99.90;;;;;;5070569;28;20225;-62
2022/05/23 13:55:50;;;;;;;6.30;2.80;;;23.00;99.90;;;;;;5071019;28;20707;-60
2022/05/23 13:58:21;;;;;;;9.17;2.97;;;22.90;99.90;;;;;;5070018;28;20258;-60
2022/05/23 14:00:56;;;;;;;4.77;2.60;;;22.90;99.90;;;;;;5070644;28;20694;-60
2022/05/23 14:03:27;;;;;;;6.53;2.90;;;22.80;99.90;;;;;;5071288;28;20290;-60
2022/05/23 14:05:57;;;;;;;5.07;2.70;;;22.80;99.90;;;;;;5070440;28;20208;-58
2022/05/23 14:08:33;;;;;;;5.27;2.97;;;22.80;99.90;;;;;;5070261;28;20209;-60
2022/05/23 14:11:07;;;;;;;4.07;3.07;;;22.80;99.90;;;;;;5073886;28;20586;-60
2022/05/23 14:13:34;;;;;;;5.90;2.90;;;22.50;99.90;;;;;;5074752;28;20278;-60